createdAt,value
2018-11-28T00:02:17.380Z,11.70
2018-11-28T00:07:46.769Z,10.93
2018-11-28T00:13:16.007Z,9.98
2018-11-28T00:18:45.302Z,9.35
2018-11-28T00:24:14.651Z,8.88
2018-11-28T00:29:43.906Z,10.15
2018-11-28T00:35:17.303Z,10.63
2018-11-28T00:40:46.679Z,9.53
2018-11-28T00:46:15.982Z,9.88
2018-11-28T00:51:45.214Z,10.65
2018-11-28T00:57:14.572Z,9.50
2018-11-28T01:02:45.537Z,10.13
2018-11-28T01:08:14.933Z,9.33
2018-11-28T01:13:45.364Z,9.03
2018-11-28T01:19:14.610Z,10.13
2018-11-28T01:24:43.857Z,9.38
2018-11-28T01:30:18.478Z,10.10
2018-11-28T01:35:47.799Z,9.03
2018-11-28T01:41:17.168Z,9.55
2018-11-28T01:46:46.434Z,9.85
2018-11-28T01:52:15.814Z,10.78
2018-11-28T01:57:45.162Z,9.08
2018-11-28T02:03:14.446Z,10.35
2018-11-28T02:08:43.706Z,11.63
2018-11-28T02:14:13.090Z,9.43
2018-11-28T02:19:42.359Z,8.68
2018-11-28T02:25:13.325Z,8.90
2018-11-28T02:30:42.643Z,9.48
2018-11-28T02:36:11.950Z,10.00
2018-11-28T02:41:41.166Z,9.95
2018-11-28T02:47:11.482Z,9.75
2018-11-28T02:52:41.417Z,9.50
2018-11-28T02:58:11.249Z,9.05
2018-11-28T03:03:40.516Z,9.23
2018-11-28T03:09:09.924Z,9.05
2018-11-28T03:14:39.221Z,8.98
2018-11-28T03:20:10.488Z,8.88
2018-11-28T03:25:39.739Z,8.58
2018-11-28T03:31:09.228Z,8.28
2018-11-28T03:36:38.683Z,7.72
2018-11-28T03:42:08.077Z,7.42
2018-11-28T03:47:37.352Z,6.78
2018-11-28T03:53:07.189Z,7.50
2018-11-28T03:58:36.560Z,7.37
2018-11-28T04:04:05.986Z,8.10
2018-11-28T04:09:36.018Z,8.68
2018-11-28T04:15:08.385Z,9.28
2018-11-28T04:20:37.685Z,7.47
2018-11-28T04:26:07.042Z,8.43
2018-11-28T04:31:36.366Z,8.33
2018-11-28T04:37:06.195Z,7.05
2018-11-28T04:42:35.398Z,7.58
2018-11-28T04:48:05.986Z,7.92
2018-11-28T04:53:35.326Z,9.85
2018-11-28T04:59:04.599Z,9.48
2018-11-28T05:04:33.921Z,7.85
2018-11-28T05:10:03.301Z,7.25
2018-11-28T05:15:33.763Z,7.47
2018-11-28T05:21:03.035Z,7.22
2018-11-28T05:26:32.450Z,8.05
2018-11-28T05:32:01.774Z,6.87
2018-11-28T05:37:31.073Z,6.85
2018-11-28T05:43:00.412Z,7.20
2018-11-28T05:48:29.691Z,7.25
2018-11-28T05:53:59.022Z,8.93
2018-11-28T05:59:28.549Z,9.63
2018-11-28T06:04:58.002Z,11.03
2018-11-28T06:10:27.255Z,11.63
2018-11-28T06:15:56.471Z,10.93
2018-11-28T06:21:25.716Z,12.82
2018-11-28T06:26:54.915Z,12.15
2018-11-28T06:32:24.118Z,11.93
2018-11-28T06:37:53.325Z,13.28
2018-11-28T06:43:22.549Z,13.65
2018-11-28T06:48:51.989Z,13.75
2018-11-28T06:54:21.239Z,12.90
2018-11-28T06:59:50.410Z,13.50
2018-11-28T07:05:19.855Z,12.90
2018-11-28T07:10:50.111Z,11.08
2018-11-28T07:16:19.423Z,13.00
2018-11-28T07:21:48.638Z,12.00
2018-11-28T07:27:17.842Z,13.55
2018-11-28T07:32:47.528Z,13.98
2018-11-28T07:38:16.767Z,14.15
2018-11-28T07:43:46.001Z,13.98
2018-11-28T07:49:15.204Z,12.20
2018-11-28T07:54:44.440Z,14.55
2018-11-28T08:00:15.192Z,11.33
2018-11-28T08:05:44.446Z,14.95
2018-11-28T08:11:13.714Z,13.20
2018-11-28T08:16:42.929Z,13.80
2018-11-28T08:22:12.165Z,14.87
2018-11-28T08:27:42.011Z,14.68
2018-11-28T08:33:11.107Z,12.25
2018-11-28T08:38:40.311Z,15.10
2018-11-28T08:44:09.522Z,14.43
2018-11-28T08:49:38.702Z,16.70
2018-11-28T08:55:09.828Z,16.30
2018-11-28T09:00:39.167Z,14.93
2018-11-28T09:06:08.386Z,16.10
2018-11-28T09:11:37.614Z,16.35
2018-11-28T09:17:07.014Z,16.27
2018-11-28T09:22:36.226Z,16.15
2018-11-28T09:28:06.241Z,14.78
2018-11-28T09:33:35.455Z,15.15
2018-11-28T09:39:05.592Z,14.13
2018-11-28T09:44:34.771Z,15.20
2018-11-28T09:50:04.154Z,15.10
2018-11-28T09:55:33.363Z,14.20
2018-11-28T10:01:02.595Z,15.13
2018-11-28T10:06:31.847Z,15.30
2018-11-28T10:12:01.039Z,14.50
2018-11-28T10:17:30.262Z,15.03
2018-11-28T10:22:59.457Z,15.68
2018-11-28T10:28:28.707Z,16.70
2018-11-28T10:33:57.926Z,14.98
2018-11-28T10:39:27.144Z,14.15
2018-11-28T10:44:56.337Z,17.35
2018-11-28T10:50:25.591Z,14.18
2018-11-28T10:55:54.949Z,16.12
2018-11-28T11:01:25.750Z,14.30
2018-11-28T11:07:00.126Z,15.63
2018-11-28T11:12:34.547Z,14.70
2018-11-28T11:18:03.859Z,16.12
2018-11-28T11:23:33.158Z,16.20
2018-11-28T11:29:02.554Z,17.20
2018-11-28T11:34:31.809Z,15.45
2018-11-28T11:40:01.059Z,18.27
2018-11-28T11:45:30.321Z,15.98
2018-11-28T11:50:59.608Z,15.53
2018-11-28T11:56:28.806Z,16.67
2018-11-28T12:01:58.122Z,15.80
2018-11-28T12:07:27.367Z,14.73
2018-11-28T12:12:56.646Z,15.75
2018-11-28T12:18:25.877Z,14.65
2018-11-28T12:23:55.191Z,16.52
2018-11-28T12:29:24.423Z,16.50
2018-11-28T12:34:53.655Z,17.15
2018-11-28T12:40:22.859Z,15.65
2018-11-28T12:45:52.319Z,16.40
2018-11-28T12:51:21.564Z,15.43
2018-11-28T12:56:50.869Z,16.77
2018-11-28T13:02:20.139Z,16.62
2018-11-28T13:07:49.395Z,17.92
2018-11-28T13:13:18.616Z,15.85
2018-11-28T13:18:47.840Z,15.58
2018-11-28T13:24:17.165Z,16.80
2018-11-28T13:29:46.374Z,18.12
2018-11-28T13:35:17.590Z,18.40
2018-11-28T13:40:46.906Z,16.65
2018-11-28T13:46:16.232Z,17.52
2018-11-28T13:51:45.537Z,17.73
2018-11-28T13:57:14.867Z,17.62
2018-11-28T14:02:44.019Z,18.80
2018-11-28T14:08:13.238Z,19.12
2018-11-28T14:13:42.501Z,15.85
2018-11-28T14:19:11.742Z,17.57
2018-11-28T14:24:40.946Z,15.63
2018-11-28T14:30:27.503Z,17.07
2018-11-28T14:35:56.836Z,15.75
2018-11-28T14:41:26.006Z,15.50
2018-11-28T14:46:55.279Z,18.17
2018-11-28T14:52:24.487Z,17.75
2018-11-28T14:57:54.870Z,15.55
2018-11-28T15:03:24.462Z,14.83
2018-11-28T15:08:57.920Z,21.48
2018-11-28T15:14:27.175Z,32.15
2018-11-28T15:19:57.471Z,21.23
2018-11-28T15:25:26.753Z,27.07
2018-11-28T15:30:55.981Z,16.30
2018-11-28T15:36:25.191Z,17.77
2018-11-28T15:41:54.451Z,16.37
2018-11-28T15:47:23.752Z,15.00
2018-11-28T15:52:53.028Z,18.75
2018-11-28T15:58:22.374Z,16.52
2018-11-28T16:03:51.622Z,18.57
2018-11-28T16:11:31.631Z,17.23
2018-11-28T16:17:00.994Z,15.78
2018-11-28T16:22:30.203Z,15.40
2018-11-28T16:27:59.664Z,16.32
2018-11-28T16:33:29.023Z,14.93
2018-11-28T16:38:58.290Z,14.78
2018-11-28T16:44:27.607Z,16.17
2018-11-28T16:49:56.903Z,13.30
2018-11-28T16:55:26.137Z,16.60
2018-11-28T17:00:55.539Z,14.98
2018-11-28T17:06:24.893Z,15.68
2018-11-28T17:11:55.405Z,15.23
2018-11-28T17:17:25.569Z,14.43
2018-11-28T17:22:58.524Z,16.48
2018-11-28T17:28:27.851Z,14.43
2018-11-28T17:33:57.160Z,15.55
2018-11-28T17:39:26.542Z,15.32
2018-11-28T17:44:55.908Z,15.28
2018-11-28T17:50:26.506Z,16.02
2018-11-28T17:55:57.686Z,16.57
2018-11-28T18:01:26.996Z,15.18
2018-11-28T18:06:56.357Z,16.52
2018-11-28T18:12:25.604Z,14.95
2018-11-28T18:17:56.716Z,17.37
2018-11-28T18:23:26.038Z,16.25
2018-11-28T18:28:55.280Z,17.27
2018-11-28T18:34:24.590Z,17.00
2018-11-28T18:39:53.888Z,16.75
2018-11-28T18:45:26.142Z,16.77
2018-11-28T18:50:55.506Z,18.82
2018-11-28T18:56:24.778Z,19.05
2018-11-28T19:01:54.142Z,16.20
2018-11-28T19:07:23.465Z,16.15
2018-11-28T19:12:53.782Z,19.98
2018-11-28T19:18:23.027Z,18.73
2018-11-28T19:23:54.267Z,19.00
2018-11-28T19:29:23.614Z,20.15
2018-11-28T19:34:52.920Z,17.90
2018-11-28T19:40:33.863Z,18.17
2018-11-28T19:46:03.374Z,17.52
2018-11-28T19:51:32.634Z,16.87
2018-11-28T19:57:01.979Z,17.27
2018-11-28T20:02:31.234Z,17.17
2018-11-28T20:08:00.517Z,18.55
2018-11-28T20:13:29.887Z,16.37
2018-11-28T20:18:59.147Z,17.90
2018-11-28T20:24:28.334Z,15.63
2018-11-28T20:29:57.668Z,18.65
2018-11-28T20:35:26.927Z,15.93
2018-11-28T20:40:56.171Z,18.75
2018-11-28T20:46:25.467Z,19.23
2018-11-28T20:51:54.811Z,16.90
2018-11-28T20:57:24.056Z,17.65
2018-11-28T21:02:53.383Z,15.95
2018-11-28T21:08:22.759Z,17.17
2018-11-28T21:13:51.975Z,18.87
2018-11-28T21:19:21.258Z,16.77
2018-11-28T21:24:50.542Z,17.65
2018-11-28T21:30:21.063Z,17.37
2018-11-28T21:35:52.124Z,17.62
2018-11-28T21:41:21.395Z,17.42
2018-11-28T21:46:50.719Z,17.65
2018-11-28T21:52:19.967Z,18.32
2018-11-28T21:57:49.271Z,17.25
2018-11-28T22:03:18.538Z,16.57
2018-11-28T22:08:47.814Z,17.65
2018-11-28T22:14:17.066Z,15.85
2018-11-28T22:19:46.275Z,17.00
2018-11-28T22:25:19.576Z,17.25
2018-11-28T22:30:48.967Z,17.70
2018-11-28T22:36:19.253Z,18.05
2018-11-28T22:41:49.076Z,18.87
2018-11-28T22:47:18.426Z,17.65
2018-11-28T22:52:47.756Z,18.25
2018-11-28T22:58:16.993Z,18.45
2018-11-28T23:03:46.827Z,17.27
2018-11-28T23:09:16.671Z,19.40
2018-11-28T23:14:46.579Z,16.70
2018-11-28T23:20:16.402Z,17.70
2018-11-28T23:25:46.562Z,18.20
2018-11-28T23:31:15.859Z,17.15
2018-11-28T23:36:45.115Z,18.12
2018-11-28T23:42:14.426Z,16.25
2018-11-28T23:47:43.751Z,18.73
2018-11-28T23:53:13.171Z,15.23
2018-11-28T23:58:42.421Z,16.65
